Time;durP1;ratioP1;P1;durP2;ratioP2;P2;SDS_P1;SDS_P2;PMS_P1;PMS_P2;Temp;Humidity;BMP_temperature;BMP_pressure;BME280_temperature;BME280_humidity;BME280_pressure;Samples;Min_cycle;Max_cycle;Signal;HPM_P1;HPM_P2
2021/04/25 00:01:56;;;;;;;0.10;0.10;;;;;;;;;;5119228;28;20239;-75
2021/04/25 00:04:21;;;;;;;0.10;0.10;;;;;;;;;;5121953;28;20428;-75
2021/04/25 00:06:48;;;;;;;0.10;0.10;;;;;;;;;;5124244;28;20253;-75
2021/04/25 00:09:14;;;;;;;0.10;0.10;;;;;;;;;;5112784;28;20209;-75
2021/04/25 00:11:41;;;;;;;0.10;0.10;;;;;;;;;;5117047;28;20232;-74
2021/04/25 00:14:07;;;;;;;0.17;0.17;;;;;;;;;;5123086;28;20212;-74
2021/04/25 00:16:33;;;;;;;0.17;0.17;;;;;;;;;;5124187;28;20488;-75
2021/04/25 00:18:59;;;;;;;0.10;0.10;;;;;;;;;;5118237;28;20511;-73
2021/04/25 00:21:25;;;;;;;0.13;0.13;;;;;;;;;;5114745;27;20197;-74
2021/04/25 00:23:51;;;;;;;0.13;0.13;;;;;;;;;;5123969;28;20232;-76
2021/04/25 00:26:17;;;;;;;0.20;0.20;;;;;;;;;;5124017;28;20212;-74
2021/04/25 00:28:43;;;;;;;0.17;0.17;;;;;;;;;;5124212;28;20205;-75
2021/04/25 00:31:09;;;;;;;0.10;0.10;;;;;;;;;;5123483;28;20554;-74
2021/04/25 00:33:35;;;;;;;0.10;0.10;;;;;;;;;;5123740;28;20208;-75
2021/04/25 00:36:01;;;;;;;0.10;0.10;;;;;;;;;;5109314;28;20228;-75
2021/04/25 00:38:27;;;;;;;0.10;0.10;;;;;;;;;;5121979;28;20507;-73
2021/04/25 00:40:52;;;;;;;0.10;0.10;;;;;;;;;;5107343;28;20281;-75
2021/04/25 00:43:18;;;;;;;0.20;0.20;;;;;;;;;;5123952;28;20229;-75
2021/04/25 00:45:45;;;;;;;0.17;0.17;;;;;;;;;;5119166;28;20317;-75
2021/04/25 00:48:11;;;;;;;0.20;0.20;;;;;;;;;;5117541;28;20208;-74
2021/04/25 00:50:36;;;;;;;0.20;0.20;;;;;;;;;;5116061;28;20540;-74
2021/04/25 00:53:02;;;;;;;0.20;0.20;;;;;;;;;;5116773;28;20212;-75
2021/04/25 00:55:29;;;;;;;0.20;0.20;;;;;;;;;;5121813;28;20250;-74
2021/04/25 00:57:55;;;;;;;0.10;0.10;;;;;;;;;;5127458;28;20211;-75
2021/04/25 01:00:22;;;;;;;0.10;0.10;;;;;;;;;;5113999;28;20204;-74
2021/04/25 01:02:49;;;;;;;0.10;0.10;;;;;;;;;;5127521;28;20351;-73
2021/04/25 01:05:15;;;;;;;0.10;0.10;;;;;;;;;;5112029;28;20259;-74
2021/04/25 01:07:41;;;;;;;0.10;0.10;;;;;;;;;;5116987;28;20202;-74
2021/04/25 01:10:08;;;;;;;0.20;0.20;;;;;;;;;;5124539;28;20229;-74
2021/04/25 01:12:34;;;;;;;0.20;0.20;;;;;;;;;;5113214;28;20204;-74
2021/04/25 01:15:00;;;;;;;0.20;0.20;;;;;;;;;;5115321;28;20210;-74
2021/04/25 01:17:25;;;;;;;0.20;0.20;;;;;;;;;;5125651;28;20386;-75
2021/04/25 01:19:52;;;;;;;0.10;0.10;;;;;;;;;;5127538;28;20330;-75
2021/04/25 01:22:19;;;;;;;0.20;0.20;;;;;;;;;;5125792;28;20229;-75
2021/04/25 01:24:45;;;;;;;0.20;0.20;;;;;;;;;;5122367;28;20293;-74
2021/04/25 01:27:10;;;;;;;0.20;0.20;;;;;;;;;;5115749;28;20269;-73
2021/04/25 01:29:36;;;;;;;0.10;0.10;;;;;;;;;;5127867;27;20492;-74
2021/04/25 01:32:02;;;;;;;0.20;0.20;;;;;;;;;;5125841;28;20235;-73
2021/04/25 01:34:29;;;;;;;0.20;0.20;;;;;;;;;;5125904;28;20205;-74
2021/04/25 01:36:56;;;;;;;0.20;0.20;;;;;;;;;;5126145;28;20508;-74
2021/04/25 01:39:23;;;;;;;0.20;0.20;;;;;;;;;;5124628;28;20229;-74
2021/04/25 01:41:49;;;;;;;0.20;0.20;;;;;;;;;;5126806;28;20538;-74
2021/04/25 01:44:14;;;;;;;0.10;0.10;;;;;;;;;;5125644;28;20202;-74
2021/04/25 01:46:40;;;;;;;0.10;0.10;;;;;;;;;;5123306;28;20201;-74
2021/04/25 01:49:07;;;;;;;0.20;0.20;;;;;;;;;;5121176;28;20297;-75
2021/04/25 01:51:33;;;;;;;0.20;0.20;;;;;;;;;;5111197;28;20222;-75
2021/04/25 01:53:59;;;;;;;0.10;0.10;;;;;;;;;;5126658;28;20294;-74
2021/04/25 01:56:25;;;;;;;0.13;0.13;;;;;;;;;;5126498;28;20232;-75
2021/04/25 01:58:51;;;;;;;0.10;0.10;;;;;;;;;;5120114;28;20565;-74
2021/04/25 02:01:17;;;;;;;0.20;0.20;;;;;;;;;;5117879;28;20205;-75
2021/04/25 02:03:43;;;;;;;0.10;0.10;;;;;;;;;;5112907;28;20549;-75
2021/04/25 02:06:09;;;;;;;0.10;0.10;;;;;;;;;;5117157;28;20290;-75
2021/04/25 02:08:34;;;;;;;0.20;0.20;;;;;;;;;;5121183;28;20208;-75
2021/04/25 02:11:00;;;;;;;0.20;0.20;;;;;;;;;;5126690;28;20227;-74
2021/04/25 02:13:27;;;;;;;0.30;0.30;;;;;;;;;;5121686;28;20205;-75
2021/04/25 02:15:53;;;;;;;0.20;0.20;;;;;;;;;;5125960;28;20354;-75
2021/04/25 02:18:18;;;;;;;0.20;0.20;;;;;;;;;;5119275;28;20208;-73
2021/04/25 02:20:44;;;;;;;0.20;0.20;;;;;;;;;;5126389;28;20249;-74
2021/04/25 02:23:10;;;;;;;0.20;0.20;;;;;;;;;;5122587;27;20237;-74
2021/04/25 02:25:36;;;;;;;0.20;0.20;;;;;;;;;;5105689;28;20442;-74
2021/04/25 02:28:02;;;;;;;0.20;0.20;;;;;;;;;;5105964;28;20219;-73
2021/04/25 02:30:30;;;;;;;0.20;0.20;;;;;;;;;;5117327;28;20288;-74
2021/04/25 02:32:56;;;;;;;0.10;0.10;;;;;;;;;;5117235;28;20209;-73
2021/04/25 02:35:23;;;;;;;0.10;0.10;;;;;;;;;;5106179;28;20255;-74
2021/04/25 02:37:49;;;;;;;0.20;0.20;;;;;;;;;;5105375;28;20209;-74
2021/04/25 02:40:16;;;;;;;0.10;0.10;;;;;;;;;;5108736;28;20508;-74
2021/04/25 02:42:42;;;;;;;0.10;0.10;;;;;;;;;;5121481;28;20268;-74
2021/04/25 02:45:14;;;;;;;0.10;0.10;;;;;;;;;;5124381;28;20276;-74
2021/04/25 02:47:41;;;;;;;0.10;0.10;;;;;;;;;;5122310;28;20213;-74
2021/04/25 02:50:07;;;;;;;0.20;0.20;;;;;;;;;;5110789;28;20418;-73
2021/04/25 02:52:33;;;;;;;0.20;0.20;;;;;;;;;;5124473;28;20202;-74
2021/04/25 02:54:58;;;;;;;0.20;0.20;;;;;;;;;;5125486;28;20204;-74
2021/04/25 02:57:24;;;;;;;0.20;0.20;;;;;;;;;;5111150;28;20242;-74
2021/04/25 02:59:50;;;;;;;0.20;0.20;;;;;;;;;;5125302;28;20398;-74
2021/04/25 03:02:16;;;;;;;0.20;0.20;;;;;;;;;;5111273;28;20423;-75
2021/04/25 03:04:42;;;;;;;0.20;0.20;;;;;;;;;;5117292;28;20209;-74
2021/04/25 03:07:08;;;;;;;0.10;0.10;;;;;;;;;;5104626;28;20231;-73
2021/04/25 03:09:33;;;;;;;0.20;0.20;;;;;;;;;;5117279;28;20198;-74
2021/04/25 03:11:59;;;;;;;0.20;0.20;;;;;;;;;;5111646;28;20270;-74
2021/04/25 03:14:25;;;;;;;0.20;0.20;;;;;;;;;;5115167;28;20197;-74
2021/04/25 03:16:51;;;;;;;0.20;0.20;;;;;;;;;;5104924;28;20217;-73
2021/04/25 03:19:17;;;;;;;0.20;0.20;;;;;;;;;;5112421;28;20201;-74
2021/04/25 03:21:43;;;;;;;0.20;0.20;;;;;;;;;;5120998;28;20300;-74
2021/04/25 03:24:09;;;;;;;0.10;0.10;;;;;;;;;;5111306;28;20202;-74
2021/04/25 03:26:35;;;;;;;0.20;0.20;;;;;;;;;;5110944;28;20214;-74
2021/04/25 03:29:01;;;;;;;0.10;0.10;;;;;;;;;;5120527;28;20208;-75
2021/04/25 03:31:26;;;;;;;0.20;0.20;;;;;;;;;;5129474;27;20241;-73
2021/04/25 03:33:52;;;;;;;0.20;0.20;;;;;;;;;;5115132;28;20449;-74
2021/04/25 03:36:18;;;;;;;0.20;0.20;;;;;;;;;;5115839;28;20231;-73
2021/04/25 03:38:44;;;;;;;0.20;0.20;;;;;;;;;;5117581;27;20202;-72
2021/04/25 03:41:10;;;;;;;0.20;0.20;;;;;;;;;;5110532;28;20254;-72
2021/04/25 03:43:36;;;;;;;0.10;0.10;;;;;;;;;;5110059;28;20201;-72
2021/04/25 03:46:02;;;;;;;0.10;0.10;;;;;;;;;;5118747;28;20216;-72
2021/04/25 03:48:28;;;;;;;0.10;0.10;;;;;;;;;;5109859;28;20201;-74
2021/04/25 03:50:53;;;;;;;0.20;0.20;;;;;;;;;;5114828;28;20221;-74
2021/04/25 03:53:19;;;;;;;0.20;0.20;;;;;;;;;;5116245;28;20205;-74
2021/04/25 03:55:46;;;;;;;0.20;0.20;;;;;;;;;;5106771;28;20225;-74
2021/04/25 03:58:11;;;;;;;0.20;0.20;;;;;;;;;;5104716;28;20210;-74
2021/04/25 04:00:37;;;;;;;0.20;0.20;;;;;;;;;;5117551;28;20213;-75
2021/04/25 04:03:03;;;;;;;0.17;0.17;;;;;;;;;;5103948;28;20229;-74
2021/04/25 04:05:29;;;;;;;0.20;0.20;;;;;;;;;;5117267;28;20201;-74
2021/04/25 04:07:54;;;;;;;0.20;0.20;;;;;;;;;;5108920;28;20216;-74
2021/04/25 04:10:20;;;;;;;0.20;0.20;;;;;;;;;;5108699;28;20391;-75
2021/04/25 04:12:47;;;;;;;0.10;0.10;;;;;;;;;;5118877;27;20518;-73
2021/04/25 04:15:13;;;;;;;0.20;0.20;;;;;;;;;;5114860;27;20228;-74
2021/04/25 04:17:39;;;;;;;0.20;0.20;;;;;;;;;;5110064;28;20206;-74
2021/04/25 04:20:05;;;;;;;0.20;0.20;;;;;;;;;;5103742;28;20261;-74
2021/04/25 04:22:31;;;;;;;0.20;0.20;;;;;;;;;;5117072;28;20342;-74
2021/04/25 04:24:57;;;;;;;0.20;0.20;;;;;;;;;;5106757;28;20460;-74
2021/04/25 04:27:23;;;;;;;0.20;0.20;;;;;;;;;;5116786;28;20227;-74
2021/04/25 04:29:49;;;;;;;0.20;0.20;;;;;;;;;;5103428;28;20209;-74
2021/04/25 04:32:15;;;;;;;0.20;0.20;;;;;;;;;;5103486;28;20233;-74
2021/04/25 04:34:41;;;;;;;0.20;0.20;;;;;;;;;;5123489;28;20213;-73
2021/04/25 04:37:06;;;;;;;0.20;0.20;;;;;;;;;;5118129;28;20247;-74
2021/04/25 04:39:32;;;;;;;0.20;0.20;;;;;;;;;;5103099;28;20221;-73
2021/04/25 04:41:58;;;;;;;0.20;0.20;;;;;;;;;;5110874;28;20216;-73
2021/04/25 04:44:24;;;;;;;0.20;0.20;;;;;;;;;;5117975;28;20211;-73
2021/04/25 04:46:51;;;;;;;0.10;0.10;;;;;;;;;;5119875;28;20201;-74
2021/04/25 04:49:16;;;;;;;0.20;0.20;;;;;;;;;;5113358;28;20210;-74
2021/04/25 04:51:42;;;;;;;0.20;0.20;;;;;;;;;;5116134;28;20459;-74
2021/04/25 04:54:08;;;;;;;0.10;0.10;;;;;;;;;;5123294;28;20426;-74
2021/04/25 04:56:34;;;;;;;0.10;0.10;;;;;;;;;;5110450;28;20267;-73
2021/04/25 04:58:59;;;;;;;0.10;0.10;;;;;;;;;;5117041;28;20205;-74
2021/04/25 05:01:25;;;;;;;0.10;0.10;;;;;;;;;;5103362;28;20213;-73
2021/04/25 05:03:52;;;;;;;0.20;0.20;;;;;;;;;;5107300;28;20213;-74
2021/04/25 05:06:18;;;;;;;0.20;0.20;;;;;;;;;;5103545;28;20369;-74
2021/04/25 05:08:43;;;;;;;0.20;0.20;;;;;;;;;;5123197;28;20215;-73
2021/04/25 05:11:09;;;;;;;0.20;0.20;;;;;;;;;;5110567;28;20386;-74
2021/04/25 05:13:35;;;;;;;0.10;0.10;;;;;;;;;;5109170;28;20233;-75
2021/04/25 05:16:00;;;;;;;0.20;0.20;;;;;;;;;;5117325;28;20208;-74
2021/04/25 05:18:26;;;;;;;0.17;0.17;;;;;;;;;;5110354;28;20205;-74
2021/04/25 05:20:53;;;;;;;0.13;0.13;;;;;;;;;;5117291;28;20238;-74
2021/04/25 05:23:19;;;;;;;0.20;0.20;;;;;;;;;;5112399;28;20226;-74
2021/04/25 05:25:44;;;;;;;0.10;0.10;;;;;;;;;;5106131;28;20324;-72
2021/04/25 05:28:10;;;;;;;0.20;0.20;;;;;;;;;;5123517;28;20281;-74
2021/04/25 05:30:36;;;;;;;0.20;0.20;;;;;;;;;;5108391;28;20229;-75
2021/04/25 05:33:02;;;;;;;0.20;0.20;;;;;;;;;;5117555;28;20209;-74
2021/04/25 05:35:28;;;;;;;0.20;0.20;;;;;;;;;;5108429;28;20509;-74
2021/04/25 05:37:54;;;;;;;0.10;0.10;;;;;;;;;;5130825;28;20289;-75
2021/04/25 05:40:20;;;;;;;0.10;0.10;;;;;;;;;;5109388;28;20270;-74
2021/04/25 05:42:46;;;;;;;0.10;0.10;;;;;;;;;;5118063;28;20510;-74
2021/04/25 05:45:20;;;;;;;0.10;0.10;;;;;;;;;;5111341;28;20222;-73
2021/04/25 05:47:46;;;;;;;0.20;0.20;;;;;;;;;;5109905;28;20229;-74
2021/04/25 05:50:12;;;;;;;0.20;0.20;;;;;;;;;;5123690;27;20359;-73
2021/04/25 05:52:38;;;;;;;0.10;0.10;;;;;;;;;;5125409;28;20239;-75
2021/04/25 05:55:05;;;;;;;0.10;0.10;;;;;;;;;;5112813;28;20215;-75
2021/04/25 05:57:31;;;;;;;0.20;0.20;;;;;;;;;;5118396;28;20387;-74
2021/04/25 05:59:57;;;;;;;0.17;0.17;;;;;;;;;;5107666;28;20235;-73
2021/04/25 06:02:23;;;;;;;0.10;0.10;;;;;;;;;;5106705;28;20202;-75
2021/04/25 06:04:49;;;;;;;0.20;0.20;;;;;;;;;;5120261;28;20273;-74
2021/04/25 06:07:14;;;;;;;0.20;0.20;;;;;;;;;;5110398;28;20198;-75
2021/04/25 06:09:40;;;;;;;0.10;0.10;;;;;;;;;;5119679;28;20205;-73
2021/04/25 06:12:10;;;;;;;0.20;0.20;;;;;;;;;;5114652;28;20278;-73
2021/04/25 06:14:36;;;;;;;0.10;0.10;;;;;;;;;;5114891;28;20217;-74
2021/04/25 06:17:02;;;;;;;0.10;0.10;;;;;;;;;;5119842;28;20447;-74
2021/04/25 06:19:28;;;;;;;0.10;0.10;;;;;;;;;;5116108;28;20546;-74
2021/04/25 06:21:53;;;;;;;0.10;0.10;;;;;;;;;;5121714;28;20198;-74
2021/04/25 06:24:19;;;;;;;0.13;0.13;;;;;;;;;;5129716;27;20199;-73
2021/04/25 06:26:45;;;;;;;0.30;0.30;;;;;;;;;;5115226;28;20205;-73
2021/04/25 06:29:12;;;;;;;0.17;0.17;;;;;;;;;;5106800;28;20213;-74
2021/04/25 06:31:37;;;;;;;0.10;0.10;;;;;;;;;;5105971;28;20233;-75
2021/04/25 06:34:03;;;;;;;0.20;0.20;;;;;;;;;;5128667;27;20197;-75
2021/04/25 06:36:29;;;;;;;0.20;0.20;;;;;;;;;;5111535;28;20205;-74
2021/04/25 06:38:55;;;;;;;0.10;0.10;;;;;;;;;;5112526;28;20436;-76
2021/04/25 06:41:20;;;;;;;0.20;0.20;;;;;;;;;;5127577;27;20192;-76
2021/04/25 06:43:47;;;;;;;0.10;0.10;;;;;;;;;;5120301;28;20205;-75
2021/04/25 06:46:13;;;;;;;0.10;0.10;;;;;;;;;;5125900;28;20212;-76
2021/04/25 06:48:39;;;;;;;0.10;0.10;;;;;;;;;;5110923;28;20203;-75
2021/04/25 06:51:05;;;;;;;0.10;0.10;;;;;;;;;;5108595;28;20225;-74
2021/04/25 06:53:30;;;;;;;0.10;0.10;;;;;;;;;;5106631;28;20280;-75
2021/04/25 06:55:56;;;;;;;0.10;0.10;;;;;;;;;;5105509;28;20285;-76
2021/04/25 06:58:22;;;;;;;0.20;0.20;;;;;;;;;;5105938;28;20494;-75
2021/04/25 07:00:48;;;;;;;0.20;0.20;;;;;;;;;;5119747;27;20277;-74
2021/04/25 07:03:14;;;;;;;0.10;0.10;;;;;;;;;;5116714;27;20375;-74
2021/04/25 07:05:40;;;;;;;0.10;0.10;;;;;;;;;;5104988;28;20244;-73
2021/04/25 07:08:06;;;;;;;0.10;0.10;;;;;;;;;;5115927;28;20213;-74
2021/04/25 07:10:32;;;;;;;0.10;0.10;;;;;;;;;;5122244;28;20203;-74
2021/04/25 07:12:58;;;;;;;0.10;0.10;;;;;;;;;;5104982;28;20209;-75
2021/04/25 07:15:24;;;;;;;0.10;0.10;;;;;;;;;;5112207;28;20202;-75
2021/04/25 07:17:51;;;;;;;0.10;0.10;;;;;;;;;;5132025;27;20230;-74
2021/04/25 07:20:18;;;;;;;3.70;3.30;;;;;;;;;;5118320;28;20490;-75
2021/04/25 07:22:44;;;;;;;0.20;0.20;;;;;;;;;;5105119;28;20256;-75
2021/04/25 07:25:10;;;;;;;0.10;0.10;;;;;;;;;;5116494;28;20553;-74
2021/04/25 07:27:36;;;;;;;0.10;0.10;;;;;;;;;;5124816;28;20227;-75
2021/04/25 07:30:03;;;;;;;0.10;0.10;;;;;;;;;;5124373;28;20270;-76
2021/04/25 07:32:28;;;;;;;0.10;0.10;;;;;;;;;;5112484;28;20230;-76
2021/04/25 07:34:54;;;;;;;0.10;0.10;;;;;;;;;;5106483;28;20391;-74
2021/04/25 07:37:21;;;;;;;0.10;0.10;;;;;;;;;;5104251;28;20211;-73
2021/04/25 07:39:47;;;;;;;0.10;0.10;;;;;;;;;;5118314;28;20270;-74
2021/04/25 07:42:14;;;;;;;0.10;0.10;;;;;;;;;;5104585;28;20199;-74
2021/04/25 07:44:41;;;;;;;0.10;0.10;;;;;;;;;;5115705;27;20214;-74
2021/04/25 07:47:07;;;;;;;0.10;0.10;;;;;;;;;;5117870;28;20212;-75
2021/04/25 07:49:33;;;;;;;0.10;0.10;;;;;;;;;;5108308;28;20208;-74
2021/04/25 07:51:59;;;;;;;0.10;0.10;;;;;;;;;;5111938;27;20229;-74
2021/04/25 07:54:26;;;;;;;0.10;0.10;;;;;;;;;;5112992;28;20214;-75
2021/04/25 07:56:52;;;;;;;0.10;0.10;;;;;;;;;;5111399;28;20244;-74
2021/04/25 07:59:18;;;;;;;0.10;0.10;;;;;;;;;;5115809;28;20203;-77
2021/04/25 08:01:44;;;;;;;0.10;0.10;;;;;;;;;;5120982;28;20196;-75
2021/04/25 08:04:10;;;;;;;0.10;0.10;;;;;;;;;;5129242;27;20201;-76
2021/04/25 08:06:36;;;;;;;0.10;0.10;;;;;;;;;;5127618;27;20225;-75
2021/04/25 08:09:02;;;;;;;0.13;0.13;;;;;;;;;;5124057;28;20385;-73
2021/04/25 08:11:28;;;;;;;0.10;0.10;;;;;;;;;;5111049;28;20482;-73
2021/04/25 08:13:54;;;;;;;0.10;0.10;;;;;;;;;;5114238;27;20218;-76
2021/04/25 08:16:20;;;;;;;0.20;0.20;;;;;;;;;;5114007;28;20197;-74
2021/04/25 08:18:46;;;;;;;0.13;0.13;;;;;;;;;;5115382;28;20221;-76
2021/04/25 08:21:12;;;;;;;0.20;0.20;;;;;;;;;;5115329;27;20318;-74
2021/04/25 08:23:38;;;;;;;0.10;0.10;;;;;;;;;;5110058;28;20222;-76
2021/04/25 08:26:04;;;;;;;1.73;1.63;;;;;;;;;;5110601;28;20579;-69
2021/04/25 08:28:31;;;;;;;0.10;0.10;;;;;;;;;;5113844;28;20257;-72
2021/04/25 08:30:56;;;;;;;0.10;0.10;;;;;;;;;;5110429;28;20215;-72
2021/04/25 08:33:25;;;;;;;0.10;0.10;;;;;;;;;;5109997;28;20207;-72
2021/04/25 08:35:51;;;;;;;0.10;0.10;;;;;;;;;;5106619;28;20206;-71
2021/04/25 08:38:17;;;;;;;0.10;0.10;;;;;;;;;;5109419;28;20214;-75
2021/04/25 08:40:43;;;;;;;0.10;0.10;;;;;;;;;;5110530;28;20210;-73
2021/04/25 08:43:10;;;;;;;0.10;0.10;;;;;;;;;;5107491;28;20203;-73
2021/04/25 08:45:37;;;;;;;0.10;0.10;;;;;;;;;;5119919;28;20200;-73
2021/04/25 08:48:03;;;;;;;0.10;0.10;;;;;;;;;;5110281;28;20202;-73
2021/04/25 08:50:30;;;;;;;0.10;0.10;;;;;;;;;;5109591;28;20229;-73
2021/04/25 08:52:57;;;;;;;0.10;0.10;;;;;;;;;;5106674;28;20228;-77
2021/04/25 08:55:22;;;;;;;0.10;0.10;;;;;;;;;;5108939;28;20207;-73
2021/04/25 08:57:48;;;;;;;0.10;0.10;;;;;;;;;;5108211;28;20198;-72
2021/04/25 09:00:15;;;;;;;0.10;0.10;;;;;;;;;;5110647;28;20199;-71
2021/04/25 09:02:42;;;;;;;0.10;0.10;;;;;;;;;;5106983;28;20513;-73
2021/04/25 09:05:09;;;;;;;0.10;0.10;;;;;;;;;;5105076;28;20394;-72
2021/04/25 09:07:35;;;;;;;0.10;0.10;;;;;;;;;;5108457;28;20238;-70
2021/04/25 09:10:01;;;;;;;0.10;0.10;;;;;;;;;;5110554;28;20203;-69
2021/04/25 09:12:35;;;;;;;0.53;0.53;;;;;;;;;;5110979;28;20231;-71
2021/04/25 09:15:02;;;;;;;0.27;0.27;;;;;;;;;;5108175;28;20545;-70
2021/04/25 09:17:27;;;;;;;0.10;0.10;;;;;;;;;;5122666;27;20500;-71
2021/04/25 09:19:56;;;;;;;0.10;0.10;;;;;;;;;;5126489;28;20238;-74
2021/04/25 09:22:22;;;;;;;0.10;0.10;;;;;;;;;;5110596;27;20410;-68
2021/04/25 09:24:48;;;;;;;0.10;0.10;;;;;;;;;;5124099;28;20219;-67
2021/04/25 09:27:24;;;;;;;0.10;0.10;;;;;;;;;;5128184;27;20466;-67
2021/04/25 09:29:51;;;;;;;0.10;0.10;;;;;;;;;;5114296;27;20340;-67
2021/04/25 09:32:17;;;;;;;0.10;0.10;;;;;;;;;;5107663;28;20261;-67
2021/04/25 09:34:43;;;;;;;0.10;0.10;;;;;;;;;;5116375;27;20226;-67
2021/04/25 09:37:14;;;;;;;0.10;0.10;;;;;;;;;;5129660;27;20206;-67
2021/04/25 09:39:39;;;;;;;0.10;0.10;;;;;;;;;;5122464;27;20450;-66
2021/04/25 09:42:07;;;;;;;0.10;0.10;;;;;;;;;;5115716;27;20205;-67
2021/04/25 09:44:34;;;;;;;0.10;0.10;;;;;;;;;;5120142;28;20202;-69
2021/04/25 09:47:03;;;;;;;0.10;0.10;;;;;;;;;;5115570;27;20215;-68
2021/04/25 09:49:42;;;;;;;0.10;0.10;;;;;;;;;;5118251;28;20200;-69
2021/04/25 09:52:09;;;;;;;0.10;0.10;;;;;;;;;;5125739;28;20226;-69
2021/04/25 09:54:36;;;;;;;0.20;0.20;;;;;;;;;;5127120;28;20202;-69
2021/04/25 09:57:02;;;;;;;0.30;0.30;;;;;;;;;;5117528;27;20392;-69
2021/04/25 09:59:28;;;;;;;0.20;0.20;;;;;;;;;;5116854;27;20410;-70
2021/04/25 10:02:02;;;;;;;0.17;0.17;;;;;;;;;;5110646;28;20210;-76
2021/04/25 10:04:28;;;;;;;0.10;0.10;;;;;;;;;;5118110;28;20225;-75
2021/04/25 10:06:55;;;;;;;0.10;0.10;;;;;;;;;;5125328;27;20270;-75
2021/04/25 10:09:21;;;;;;;0.10;0.10;;;;;;;;;;5118927;27;20202;-72
2021/04/25 10:11:48;;;;;;;0.10;0.10;;;;;;;;;;5113411;28;20230;-71
2021/04/25 10:14:14;;;;;;;0.10;0.10;;;;;;;;;;5122059;27;20210;-70
2021/04/25 10:16:41;;;;;;;0.10;0.10;;;;;;;;;;5120402;27;20263;-72
2021/04/25 10:19:08;;;;;;;0.10;0.10;;;;;;;;;;5113665;27;20208;-71
2021/04/25 10:21:34;;;;;;;0.10;0.10;;;;;;;;;;5122698;28;20196;-69
2021/04/25 10:24:00;;;;;;;0.10;0.10;;;;;;;;;;5115295;28;20256;-69
2021/04/25 10:26:28;;;;;;;0.10;0.10;;;;;;;;;;5108363;27;20198;-74
2021/04/25 10:28:56;;;;;;;0.10;0.10;;;;;;;;;;5121767;27;20195;-70
2021/04/25 10:31:27;;;;;;;0.10;0.10;;;;;;;;;;5119792;27;20247;-71
2021/04/25 10:33:54;;;;;;;0.10;0.10;;;;;;;;;;5110282;28;20213;-72
2021/04/25 10:36:20;;;;;;;0.10;0.10;;;;;;;;;;5106041;28;20237;-71
2021/04/25 10:38:46;;;;;;;0.10;0.10;;;;;;;;;;5111357;28;20205;-71
2021/04/25 10:41:22;;;;;;;0.10;0.10;;;;;;;;;;5109485;28;20393;-70
2021/04/25 10:44:00;;;;;;;0.10;0.10;;;;;;;;;;5108358;27;20201;-70
2021/04/25 10:46:26;;;;;;;0.10;0.10;;;;;;;;;;5113519;28;20238;-74
2021/04/25 10:49:19;;;;;;;0.10;0.10;;;;;;;;;;5114907;27;20211;-72
2021/04/25 10:51:45;;;;;;;0.10;0.10;;;;;;;;;;5124197;27;20440;-70
2021/04/25 10:54:11;;;;;;;0.10;0.10;;;;;;;;;;5114642;27;20212;-74
2021/04/25 10:56:39;;;;;;;0.00;0.00;;;;;;;;;;5109437;28;20432;-67
2021/04/25 10:59:27;;;;;;;0.10;0.10;;;;;;;;;;5106757;28;20391;-74
2021/04/25 11:01:54;;;;;;;0.10;0.10;;;;;;;;;;5112399;27;20263;-68
2021/04/25 11:04:39;;;;;;;0.10;0.10;;;;;;;;;;5110556;28;20212;-73
2021/04/25 11:07:32;;;;;;;0.00;0.00;;;;;;;;;;5110031;28;20256;-75
2021/04/25 11:09:58;;;;;;;0.10;0.10;;;;;;;;;;5109073;28;20278;-74
2021/04/25 11:12:39;;;;;;;0.10;0.10;;;;;;;;;;5107506;28;20217;-72
2021/04/25 11:15:05;;;;;;;0.00;0.00;;;;;;;;;;5105368;28;20220;-75
2021/04/25 11:17:32;;;;;;;0.00;0.00;;;;;;;;;;5110446;28;20274;-74
2021/04/25 11:19:58;;;;;;;0.10;0.10;;;;;;;;;;5115657;27;20208;-73
2021/04/25 11:22:39;;;;;;;0.05;0.05;;;;;;;;;;5115832;27;20229;-75
2021/04/25 11:25:19;;;;;;;0.00;0.00;;;;;;;;;;5107467;28;20246;-74
2021/04/25 11:27:45;;;;;;;0.10;0.10;;;;;;;;;;5117136;28;20203;-74
2021/04/25 11:30:11;;;;;;;0.08;0.08;;;;;;;;;;5117858;27;20492;-75
2021/04/25 11:32:40;;;;;;;0.08;0.08;;;;;;;;;;5109738;28;20266;-73
2021/04/25 11:35:12;;;;;;;0.00;0.00;;;;;;;;;;5116279;27;20225;-73
2021/04/25 11:37:38;;;;;;;0.10;0.10;;;;;;;;;;5114764;27;20209;-73
2021/04/25 11:40:07;;;;;;;0.10;0.10;;;;;;;;;;5114509;27;20242;-73
2021/04/25 11:42:33;;;;;;;0.00;0.00;;;;;;;;;;5121791;27;20211;-74
2021/04/25 11:45:00;;;;;;;0.00;0.00;;;;;;;;;;5128121;27;20220;-74
2021/04/25 11:47:29;;;;;;;0.00;0.00;;;;;;;;;;5121026;27;20207;-74
2021/04/25 11:49:57;;;;;;;0.05;0.05;;;;;;;;;;5112253;28;20291;-76
2021/04/25 11:52:24;;;;;;;0.03;0.03;;;;;;;;;;5118356;28;20410;-75
2021/04/25 11:54:58;;;;;;;0.00;0.00;;;;;;;;;;5110094;28;20195;-73
2021/04/25 11:57:24;;;;;;;0.10;0.10;;;;;;;;;;5104797;28;20194;-75
2021/04/25 11:59:52;;;;;;;0.10;0.10;;;;;;;;;;5127458;27;20198;-73
2021/04/25 12:02:18;;;;;;;0.10;0.10;;;;;;;;;;5120432;28;20233;-74
2021/04/25 12:04:44;;;;;;;0.05;0.05;;;;;;;;;;5115718;28;20245;-72
2021/04/25 12:10:16;;;;;;;0.10;0.10;;;;;;;;;;5116945;28;20179;-68
2021/04/25 12:13:03;;;;;;;0.00;0.00;;;;;;;;;;5110724;28;20247;-76
2021/04/25 12:15:30;;;;;;;0.00;0.00;;;;;;;;;;5115437;28;20480;-75
2021/04/25 12:17:57;;;;;;;0.10;0.10;;;;;;;;;;5124262;28;20273;-73
2021/04/25 12:20:23;;;;;;;0.10;0.10;;;;;;;;;;5122043;28;20209;-76
2021/04/25 13:29:19;;;;;;;0.10;0.10;;;;;;;;;;5143041;27;20211;-67
2021/04/25 13:31:46;;;;;;;0.10;0.10;;;;;;;;;;5129935;27;20236;-68
2021/04/25 13:34:12;;;;;;;0.10;0.10;;;;;;;;;;5123257;28;20205;-69
2021/04/25 13:36:38;;;;;;;0.10;0.10;;;;;;;;;;5113165;28;20209;-69
2021/04/25 13:39:05;;;;;;;0.10;0.10;;;;;;;;;;5111411;28;20213;-68
2021/04/25 13:41:31;;;;;;;0.10;0.10;;;;;;;;;;5107008;28;20545;-68
2021/04/25 13:43:57;;;;;;;0.10;0.10;;;;;;;;;;5107765;28;20516;-69
2021/04/25 13:46:23;;;;;;;0.10;0.10;;;;;;;;;;5121118;28;20298;-68
2021/04/25 13:48:49;;;;;;;0.10;0.10;;;;;;;;;;5121288;28;20509;-68
2021/04/25 13:51:15;;;;;;;0.10;0.10;;;;;;;;;;5119134;28;20272;-67
2021/04/25 13:53:41;;;;;;;0.10;0.10;;;;;;;;;;5123061;28;20396;-69
2021/04/25 13:56:07;;;;;;;0.10;0.10;;;;;;;;;;5119755;27;20453;-69
2021/04/25 13:58:33;;;;;;;0.10;0.10;;;;;;;;;;5130618;27;20194;-68
2021/04/25 14:00:59;;;;;;;0.10;0.10;;;;;;;;;;5122584;28;20211;-67
2021/04/25 14:03:27;;;;;;;0.00;0.00;;;;;;;;;;5122671;28;20401;-69
2021/04/25 14:05:53;;;;;;;0.10;0.10;;;;;;;;;;5137933;27;20273;-68
2021/04/25 14:08:19;;;;;;;0.10;0.10;;;;;;;;;;5131011;27;20196;-70
2021/04/25 14:10:45;;;;;;;0.27;0.27;;;;;;;;;;5126810;28;20201;-70
2021/04/25 14:13:11;;;;;;;0.10;0.10;;;;;;;;;;5126422;28;20233;-68
2021/04/25 14:15:38;;;;;;;0.10;0.10;;;;;;;;;;5136242;27;20203;-69
2021/04/25 14:18:04;;;;;;;0.10;0.10;;;;;;;;;;5124380;27;20212;-69
2021/04/25 14:20:31;;;;;;;0.10;0.10;;;;;;;;;;5130893;27;20537;-68
2021/04/25 14:22:58;;;;;;;0.10;0.10;;;;;;;;;;5124742;27;20230;-68
2021/04/25 14:25:24;;;;;;;0.10;0.10;;;;;;;;;;5137825;27;20213;-69
2021/04/25 14:27:51;;;;;;;0.10;0.10;;;;;;;;;;5130507;27;20209;-68
2021/04/25 14:39:32;;;;;;;0.10;0.10;;;;;;;;;;5142239;27;20191;-70
2021/04/25 14:41:58;;;;;;;0.10;0.10;;;;;;;;;;5146236;27;20535;-68
2021/04/25 14:44:24;;;;;;;6.00;5.07;;;;;;;;;;5147086;27;20204;-68
2021/04/25 15:56:57;;;;;;;0.10;0.10;;;;;;;;;;5134360;27;20359;-70
2021/04/25 15:59:24;;;;;;;0.10;0.10;;;;;;;;;;5145327;27;20207;-71
2021/04/25 16:01:50;;;;;;;0.10;0.10;;;;;;;;;;5138478;27;20283;-70
2021/04/25 16:04:16;;;;;;;0.10;0.10;;;;;;;;;;5138814;27;20431;-70
2021/04/25 16:06:42;;;;;;;0.10;0.10;;;;;;;;;;5132836;27;20514;-70
2021/04/25 16:09:08;;;;;;;0.10;0.10;;;;;;;;;;5145901;27;20205;-71
2021/04/25 16:11:34;;;;;;;0.10;0.10;;;;;;;;;;5136438;27;20288;-70
2021/04/25 16:14:01;;;;;;;0.10;0.10;;;;;;;;;;5131176;27;20201;-71
2021/04/25 16:16:26;;;;;;;0.10;0.10;;;;;;;;;;5139032;27;20207;-69
2021/04/25 16:18:52;;;;;;;0.10;0.10;;;;;;;;;;5129891;27;20485;-70
2021/04/25 16:21:18;;;;;;;0.10;0.10;;;;;;;;;;5138857;27;20205;-69
2021/04/25 16:23:44;;;;;;;0.10;0.10;;;;;;;;;;5137199;27;20224;-70
2021/04/25 16:26:10;;;;;;;0.10;0.10;;;;;;;;;;5132406;27;20202;-72
2021/04/25 16:28:35;;;;;;;0.10;0.10;;;;;;;;;;5131655;27;20272;-71
2021/04/25 16:31:02;;;;;;;0.97;0.97;;;;;;;;;;5140229;27;20227;-72
2021/04/25 16:33:28;;;;;;;0.10;0.10;;;;;;;;;;5137106;27;20314;-70
2021/04/25 16:35:54;;;;;;;0.10;0.10;;;;;;;;;;5143374;27;20288;-71
2021/04/25 16:38:20;;;;;;;0.10;0.10;;;;;;;;;;5131806;27;20247;-71
2021/04/25 16:40:45;;;;;;;0.10;0.10;;;;;;;;;;5138648;28;20486;-70
2021/04/25 16:43:11;;;;;;;0.10;0.10;;;;;;;;;;5142831;27;20314;-71
2021/04/25 16:48:41;;;;;;;0.10;0.10;;;;;;;;;;5136233;28;20173;-72
2021/04/25 16:51:07;;;;;;;0.10;0.10;;;;;;;;;;5141106;27;20220;-72
2021/04/25 16:53:33;;;;;;;0.10;0.10;;;;;;;;;;5143896;27;20431;-70
2021/04/25 16:55:59;;;;;;;0.10;0.10;;;;;;;;;;5151354;27;20208;-69
2021/04/25 16:58:25;;;;;;;0.10;0.10;;;;;;;;;;5152633;27;20259;-69
2021/04/25 17:00:51;;;;;;;0.10;0.10;;;;;;;;;;5134079;27;20235;-72
2021/04/25 17:03:19;;;;;;;0.10;0.10;;;;;;;;;;5139725;27;20217;-70
2021/04/25 17:05:45;;;;;;;0.10;0.10;;;;;;;;;;5130432;27;20473;-71
2021/04/25 17:08:11;;;;;;;0.10;0.10;;;;;;;;;;5134549;27;20448;-71
2021/04/25 17:10:37;;;;;;;0.10;0.10;;;;;;;;;;5148939;27;20197;-72
2021/04/25 17:13:04;;;;;;;0.10;0.10;;;;;;;;;;5139036;27;20557;-70